createdAt,value
2018-10-02T00:00:31.376Z,11.73
2018-10-02T00:03:01.010Z,10.10
2018-10-02T00:05:30.775Z,10.13
2018-10-02T00:08:00.422Z,10.63
2018-10-02T00:10:30.199Z,9.80
2018-10-02T00:13:05.060Z,9.90
2018-10-02T00:15:34.864Z,8.60
2018-10-02T00:18:04.645Z,8.70
2018-10-02T00:20:34.491Z,8.00
2018-10-02T00:23:04.104Z,8.50
2018-10-02T00:25:33.868Z,7.87
2018-10-02T00:28:03.625Z,7.43
2018-10-02T00:30:33.492Z,6.67
2018-10-02T00:33:03.247Z,6.27
2018-10-02T00:35:33.120Z,6.50
2018-10-02T00:38:02.874Z,6.50
2018-10-02T00:40:32.640Z,5.77
2018-10-02T00:43:02.276Z,6.50
2018-10-02T00:45:31.976Z,5.70
2018-10-02T00:48:01.673Z,5.03
2018-10-02T00:50:31.534Z,4.93
2018-10-02T00:53:01.292Z,5.70
2018-10-02T00:55:31.116Z,4.90
2018-10-02T00:58:02.789Z,4.90
2018-10-02T01:00:34.441Z,4.97
2018-10-02T01:03:06.060Z,4.33
2018-10-02T01:05:41.637Z,4.10
2018-10-02T01:08:11.373Z,4.20
2018-10-02T01:10:41.452Z,4.40
2018-10-02T01:13:11.100Z,4.67
2018-10-02T01:15:40.976Z,3.90
2018-10-02T01:18:10.624Z,3.93
2018-10-02T01:20:40.396Z,3.27
2018-10-02T01:23:10.141Z,3.90
2018-10-02T01:25:39.837Z,3.20
2018-10-02T01:28:09.856Z,3.87
2018-10-02T01:30:39.564Z,3.97
2018-10-02T01:33:09.244Z,3.60
2018-10-02T01:35:38.899Z,3.00
2018-10-02T01:38:08.559Z,2.53
2018-10-02T01:40:38.211Z,3.37
2018-10-02T01:43:07.912Z,2.80
2018-10-02T01:45:37.636Z,2.43
2018-10-02T01:48:07.454Z,3.53
2018-10-02T01:50:43.557Z,2.70
2018-10-02T01:53:13.331Z,3.13
2018-10-02T01:55:43.159Z,2.60
2018-10-02T01:58:12.851Z,2.77
2018-10-02T02:00:42.528Z,2.87
2018-10-02T02:03:12.320Z,3.50
2018-10-02T02:05:42.085Z,2.80
2018-10-02T02:08:11.904Z,2.40
2018-10-02T02:10:41.620Z,2.70
2018-10-02T02:13:11.273Z,2.90
2018-10-02T02:15:40.985Z,2.60
2018-10-02T02:18:10.516Z,3.70
2018-10-02T02:20:40.383Z,3.20
2018-10-02T02:23:10.041Z,2.87
2018-10-02T02:25:39.813Z,3.10
2018-10-02T02:28:09.561Z,2.80
2018-10-02T02:30:39.396Z,3.47
2018-10-02T02:33:09.195Z,3.17
2018-10-02T02:35:39.119Z,2.87
2018-10-02T02:38:08.912Z,3.30
2018-10-02T02:40:38.731Z,4.77
2018-10-02T02:43:08.740Z,6.80
2018-10-02T02:45:38.437Z,6.03
2018-10-02T02:48:13.147Z,5.07
2018-10-02T02:50:50.786Z,5.13
2018-10-02T02:53:22.341Z,4.13
2018-10-02T02:55:52.200Z,3.50
2018-10-02T02:58:21.941Z,3.00
2018-10-02T03:00:51.776Z,3.30
2018-10-02T03:03:21.477Z,2.93
2018-10-02T03:05:51.157Z,2.87
2018-10-02T03:08:21.007Z,2.70
2018-10-02T03:10:50.869Z,3.07
2018-10-02T03:13:20.516Z,3.37
2018-10-02T03:15:50.102Z,3.10
2018-10-02T03:18:19.804Z,2.23
2018-10-02T03:20:49.440Z,2.37
2018-10-02T03:23:19.211Z,2.73
2018-10-02T03:25:48.984Z,2.67
2018-10-02T03:28:18.690Z,2.50
2018-10-02T03:30:48.381Z,2.50
2018-10-02T03:33:17.996Z,2.50
2018-10-02T03:35:47.864Z,2.93
2018-10-02T03:38:17.522Z,3.00
2018-10-02T03:40:47.300Z,2.50
2018-10-02T03:43:16.831Z,2.60
2018-10-02T03:45:46.675Z,2.60
2018-10-02T03:48:16.404Z,2.63
2018-10-02T03:50:46.076Z,2.70
2018-10-02T03:53:15.830Z,3.70
2018-10-02T03:55:45.593Z,2.40
2018-10-02T03:58:15.356Z,2.20
2018-10-02T04:00:45.008Z,3.50
2018-10-02T04:03:14.793Z,2.30
2018-10-02T04:05:44.535Z,2.60
2018-10-02T04:08:14.416Z,3.00
2018-10-02T04:10:44.116Z,2.93
2018-10-02T04:13:13.714Z,2.30
2018-10-02T04:15:43.524Z,3.10
2018-10-02T04:18:13.187Z,2.47
2018-10-02T04:20:43.176Z,3.00
2018-10-02T04:23:12.667Z,2.67
2018-10-02T04:25:42.298Z,2.80
2018-10-02T04:28:12.132Z,3.00
2018-10-02T04:30:41.805Z,2.40
2018-10-02T04:33:11.491Z,2.80
2018-10-02T04:35:41.144Z,3.30
2018-10-02T04:38:10.736Z,2.60
2018-10-02T04:40:40.523Z,2.90
2018-10-02T04:43:10.279Z,3.00
2018-10-02T04:45:40.044Z,2.60
2018-10-02T04:48:09.700Z,3.10
2018-10-02T04:50:39.565Z,3.00
2018-10-02T04:53:09.216Z,2.63
2018-10-02T04:55:39.074Z,3.00
2018-10-02T04:58:08.848Z,3.07
2018-10-02T05:00:38.631Z,3.50
2018-10-02T05:03:08.371Z,3.07
2018-10-02T05:05:38.165Z,3.50
2018-10-02T05:08:07.952Z,3.60
2018-10-02T05:10:37.705Z,3.43
2018-10-02T05:13:07.578Z,3.47
2018-10-02T05:15:37.201Z,3.00
2018-10-02T05:18:07.001Z,3.50
2018-10-02T05:20:36.821Z,3.90
2018-10-02T05:23:06.620Z,4.03
2018-10-02T05:25:36.485Z,3.53
2018-10-02T05:28:06.344Z,4.07
2018-10-02T05:30:35.987Z,4.10
2018-10-02T05:33:05.774Z,4.13
2018-10-02T05:35:35.623Z,3.97
2018-10-02T05:38:05.489Z,3.80
2018-10-02T05:40:35.144Z,3.87
2018-10-02T05:43:04.924Z,4.77
2018-10-02T05:45:34.557Z,4.67
2018-10-02T05:48:04.372Z,4.33
2018-10-02T05:50:34.112Z,4.43
2018-10-02T05:53:03.873Z,5.00
2018-10-02T05:55:33.561Z,4.77
2018-10-02T05:58:03.403Z,4.10
2018-10-02T06:00:33.196Z,5.30
2018-10-02T06:03:02.924Z,5.07
2018-10-02T06:05:32.710Z,5.90
2018-10-02T06:08:02.373Z,6.00
2018-10-02T06:10:32.025Z,6.07
2018-10-02T06:13:01.574Z,6.43
2018-10-02T06:15:31.409Z,6.50
2018-10-02T06:18:01.135Z,6.60
2018-10-02T06:20:30.894Z,7.20
2018-10-02T06:23:00.576Z,6.63
2018-10-02T06:25:30.227Z,6.87
2018-10-02T06:27:59.909Z,6.90
2018-10-02T06:30:29.802Z,6.73
2018-10-02T06:32:59.433Z,7.17
2018-10-02T06:35:29.166Z,7.00
2018-10-02T06:37:58.897Z,7.63
2018-10-02T06:40:28.940Z,8.20
2018-10-02T06:42:58.853Z,7.90
2018-10-02T06:45:28.520Z,6.10
2018-10-02T06:47:58.217Z,7.50
2018-10-02T06:50:27.923Z,6.97
2018-10-02T06:52:57.567Z,6.40
2018-10-02T06:55:27.253Z,6.53
2018-10-02T06:57:57.024Z,6.00
2018-10-02T07:00:27.053Z,6.13
2018-10-02T07:02:56.855Z,7.27
2018-10-02T07:05:26.490Z,7.40
2018-10-02T07:07:56.345Z,6.00
2018-10-02T07:10:26.022Z,5.40
2018-10-02T07:12:55.698Z,5.97
2018-10-02T07:15:25.350Z,5.00
2018-10-02T07:17:55.033Z,5.20
2018-10-02T07:20:24.732Z,4.23
2018-10-02T07:22:54.360Z,4.03
2018-10-02T07:25:24.035Z,5.33
2018-10-02T07:27:53.908Z,3.80
2018-10-02T07:30:23.692Z,4.30
2018-10-02T07:32:53.361Z,3.40
2018-10-02T07:35:23.036Z,3.53
2018-10-02T07:37:53.076Z,3.17
2018-10-02T07:40:22.758Z,3.60
2018-10-02T07:42:52.519Z,3.20
2018-10-02T07:45:22.272Z,2.37
2018-10-02T07:47:51.987Z,2.30
2018-10-02T07:50:21.706Z,1.80
2018-10-02T07:52:51.102Z,1.80
2018-10-02T07:55:20.533Z,1.80
2018-10-02T07:57:49.873Z,1.63
2018-10-02T08:00:19.304Z,1.70
2018-10-02T08:02:48.718Z,1.60
2018-10-02T08:05:18.139Z,1.60
2018-10-02T08:07:47.479Z,1.50
2018-10-02T08:10:16.855Z,1.70
2018-10-02T08:12:46.219Z,1.57
2018-10-02T08:15:15.581Z,1.90
2018-10-02T08:17:44.990Z,2.20
2018-10-02T08:20:14.365Z,3.07
2018-10-02T08:22:43.734Z,2.00
2018-10-02T08:25:13.108Z,2.43
2018-10-02T08:27:42.728Z,2.13
2018-10-02T08:30:12.194Z,2.07
2018-10-02T08:32:41.543Z,1.93
2018-10-02T08:35:10.941Z,1.90
2018-10-02T08:37:40.341Z,1.83
2018-10-02T08:40:09.738Z,1.70
2018-10-02T08:42:39.105Z,2.27
2018-10-02T08:45:08.652Z,2.10
2018-10-02T08:47:38.419Z,2.10
2018-10-02T08:50:08.332Z,1.93
2018-10-02T08:52:38.091Z,1.90
2018-10-02T08:55:08.014Z,2.00
2018-10-02T08:57:37.714Z,1.97
2018-10-02T09:00:07.729Z,1.67
2018-10-02T09:02:37.436Z,2.00
2018-10-02T09:05:07.040Z,2.37
2018-10-02T09:07:36.769Z,2.00
2018-10-02T09:10:06.473Z,1.83
2018-10-02T09:12:36.258Z,1.87
2018-10-02T09:15:12.155Z,2.50
2018-10-02T09:17:36.163Z,1.90
2018-10-02T09:20:05.936Z,2.00
2018-10-02T09:22:35.521Z,1.80
2018-10-02T09:25:05.302Z,2.10
2018-10-02T09:27:35.060Z,2.10
2018-10-02T09:30:10.120Z,1.90
2018-10-02T09:32:44.705Z,2.20
2018-10-02T09:35:19.612Z,2.47
2018-10-02T09:37:54.336Z,2.03
2018-10-02T09:40:29.181Z,2.67
2018-10-02T09:43:03.921Z,2.23
2018-10-02T09:45:33.611Z,2.97
2018-10-02T09:48:09.401Z,2.90
2018-10-02T09:50:39.221Z,2.10
2018-10-02T09:53:09.069Z,2.30
2018-10-02T09:55:38.745Z,2.70
2018-10-02T09:58:08.701Z,2.30
2018-10-02T10:00:43.507Z,2.13
2018-10-02T10:03:13.281Z,2.00
2018-10-02T10:05:43.099Z,2.13
2018-10-02T10:08:12.856Z,1.87
2018-10-02T10:10:42.513Z,1.93
2018-10-02T10:13:12.294Z,2.27
2018-10-02T10:15:42.032Z,2.10
2018-10-02T10:18:11.801Z,2.20
2018-10-02T10:20:41.472Z,2.07
2018-10-02T10:23:11.153Z,2.60
2018-10-02T10:25:40.836Z,2.27
2018-10-02T10:28:10.460Z,1.80
2018-10-02T10:30:40.253Z,1.70
2018-10-02T10:33:10.007Z,1.57
2018-10-02T10:35:39.869Z,1.80
2018-10-02T10:38:09.723Z,2.00
2018-10-02T10:40:39.686Z,2.00
2018-10-02T10:43:09.353Z,1.90
2018-10-02T10:45:39.175Z,2.80
2018-10-02T10:48:08.980Z,2.37
2018-10-02T10:50:38.668Z,2.57
2018-10-02T10:53:08.466Z,2.60
2018-10-02T10:55:39.205Z,3.10
2018-10-02T10:58:08.964Z,2.63
2018-10-02T11:00:38.813Z,2.70
2018-10-02T11:03:08.720Z,3.23
2018-10-02T11:05:38.344Z,3.03
2018-10-02T11:08:08.358Z,3.03
2018-10-02T11:10:38.018Z,2.50
2018-10-02T11:13:07.856Z,3.87
2018-10-02T11:15:37.744Z,3.40
2018-10-02T11:18:07.484Z,3.73
2018-10-02T11:20:38.693Z,2.43
2018-10-02T11:23:08.510Z,3.40
2018-10-02T11:25:38.333Z,3.00
2018-10-02T11:28:08.133Z,3.17
2018-10-02T11:30:37.645Z,3.33
2018-10-02T11:33:07.330Z,3.10
2018-10-02T11:35:37.193Z,3.53
2018-10-02T11:38:06.970Z,2.77
2018-10-02T11:40:36.760Z,3.50
2018-10-02T11:43:06.619Z,3.10
2018-10-02T11:45:36.277Z,2.90
2018-10-02T11:48:06.022Z,2.30
2018-10-02T11:50:35.687Z,2.83
2018-10-02T11:53:05.433Z,6.00
2018-10-02T11:55:35.275Z,2.63
2018-10-02T11:58:05.116Z,2.40
2018-10-02T12:00:34.743Z,2.60
2018-10-02T12:03:04.505Z,2.80
2018-10-02T12:05:34.284Z,2.17
2018-10-02T12:08:03.985Z,1.83
2018-10-02T12:10:33.764Z,1.73
2018-10-02T12:13:03.534Z,2.27
2018-10-02T12:15:33.109Z,2.23
2018-10-02T12:18:02.788Z,2.27
2018-10-02T12:20:32.424Z,2.07
2018-10-02T12:23:02.112Z,3.50
2018-10-02T12:25:31.873Z,2.40
2018-10-02T12:28:01.563Z,2.53
2018-10-02T12:30:31.342Z,3.20
2018-10-02T12:33:00.972Z,2.40
2018-10-02T12:35:30.657Z,2.73
2018-10-02T12:38:00.309Z,2.53
2018-10-02T12:40:30.120Z,2.83
2018-10-02T12:42:59.928Z,2.50
2018-10-02T12:45:29.583Z,2.80
2018-10-02T12:47:59.412Z,3.00
2018-10-02T12:50:29.072Z,2.77
2018-10-02T12:52:58.987Z,2.57
2018-10-02T12:55:28.597Z,2.30
2018-10-02T12:57:58.409Z,2.93
2018-10-02T13:00:28.199Z,2.40
2018-10-02T13:02:57.918Z,2.20
2018-10-02T13:05:27.684Z,2.23
2018-10-02T13:07:57.242Z,2.70
2018-10-02T13:10:27.041Z,2.90
2018-10-02T13:12:56.789Z,2.30
2018-10-02T13:15:26.474Z,2.53
2018-10-02T13:17:56.189Z,2.60
2018-10-02T13:20:26.001Z,2.50
2018-10-02T13:22:55.765Z,2.43
2018-10-02T13:25:25.659Z,3.30
2018-10-02T13:27:55.505Z,2.90
2018-10-02T13:30:25.140Z,2.63
2018-10-02T13:32:54.942Z,3.40
2018-10-02T13:35:24.684Z,2.17
2018-10-02T13:37:54.385Z,2.10
2018-10-02T13:40:24.234Z,2.60
2018-10-02T13:42:53.888Z,2.70
2018-10-02T13:45:23.675Z,2.60
2018-10-02T13:47:53.316Z,2.40
2018-10-02T13:50:23.052Z,2.90
2018-10-02T13:52:52.746Z,2.57
2018-10-02T13:55:22.450Z,2.30
2018-10-02T13:57:52.309Z,2.43
2018-10-02T14:00:22.105Z,2.20
2018-10-02T14:02:51.839Z,2.33
2018-10-02T14:05:21.588Z,2.60
2018-10-02T14:07:51.408Z,2.60
2018-10-02T14:10:21.221Z,3.07
2018-10-02T14:12:51.032Z,2.53
2018-10-02T14:15:21.009Z,2.50
2018-10-02T14:17:50.755Z,3.10
2018-10-02T14:20:20.563Z,1.90
2018-10-02T14:22:50.344Z,2.77
2018-10-02T14:25:20.059Z,4.70
2018-10-02T14:27:49.800Z,3.50
2018-10-02T14:30:19.566Z,3.93
2018-10-02T14:32:49.213Z,3.10
2018-10-02T14:35:19.007Z,2.97
2018-10-02T14:37:48.746Z,2.83
2018-10-02T14:40:18.549Z,2.87
2018-10-02T14:42:48.220Z,3.20
2018-10-02T14:45:17.768Z,3.33
2018-10-02T14:47:47.461Z,3.23
2018-10-02T14:50:17.137Z,2.97
2018-10-02T14:52:46.764Z,3.00
2018-10-02T14:55:16.460Z,2.60
2018-10-02T14:57:46.114Z,3.30
2018-10-02T15:00:15.943Z,3.17
2018-10-02T15:02:45.799Z,3.73
2018-10-02T15:05:15.179Z,3.53
2018-10-02T15:07:45.253Z,3.30
2018-10-02T15:10:14.661Z,3.27
2018-10-02T15:12:44.371Z,2.70
2018-10-02T15:15:13.906Z,3.40
2018-10-02T15:17:43.316Z,3.60
2018-10-02T15:20:12.977Z,3.50
2018-10-02T15:22:42.548Z,3.80
2018-10-02T15:25:11.941Z,3.77
2018-10-02T15:27:41.709Z,3.70
2018-10-02T15:30:11.089Z,2.73
2018-10-02T15:32:40.508Z,3.50
2018-10-02T15:35:09.903Z,3.77
2018-10-02T15:37:39.286Z,3.70
2018-10-02T15:40:08.762Z,3.53
2018-10-02T15:42:38.168Z,4.10
2018-10-02T15:45:07.776Z,4.03
2018-10-02T15:47:37.156Z,3.10
2018-10-02T15:50:06.779Z,3.60
2018-10-02T15:52:36.460Z,4.67
2018-10-02T15:55:06.122Z,3.73
2018-10-02T15:57:35.505Z,3.77
2018-10-02T16:00:05.028Z,3.47
2018-10-02T16:02:34.452Z,3.10
2018-10-02T16:05:04.117Z,3.70
2018-10-02T16:07:33.633Z,4.30
2018-10-02T16:10:03.049Z,3.60
2018-10-02T16:12:33.022Z,3.70
2018-10-02T16:15:02.404Z,3.60
2018-10-02T16:17:31.996Z,3.70
2018-10-02T16:20:01.352Z,3.70
2018-10-02T16:22:31.038Z,4.40
2018-10-02T16:25:00.858Z,3.70
2018-10-02T16:27:30.314Z,5.27
2018-10-02T16:29:59.725Z,3.00
2018-10-02T16:32:29.404Z,3.93
2018-10-02T16:34:59.043Z,3.30
2018-10-02T16:37:29.242Z,3.40
2018-10-02T16:39:59.053Z,3.47
2018-10-02T16:42:29.087Z,3.77
2018-10-02T16:44:58.948Z,5.37
2018-10-02T16:47:28.681Z,4.17
2018-10-02T16:49:58.314Z,3.83
2018-10-02T16:52:29.276Z,4.00
2018-10-02T16:54:59.077Z,3.20
2018-10-02T16:57:38.455Z,3.50
2018-10-02T17:00:13.969Z,4.50
2018-10-02T17:02:43.887Z,4.03
2018-10-02T17:05:13.591Z,3.63
2018-10-02T17:07:43.089Z,3.30
2018-10-02T17:10:12.633Z,3.70
2018-10-02T17:12:42.657Z,3.77
2018-10-02T17:15:12.461Z,4.03
2018-10-02T17:17:41.821Z,3.37
2018-10-02T17:20:11.416Z,3.53
2018-10-02T17:22:40.773Z,4.03
2018-10-02T17:25:10.145Z,3.73
2018-10-02T17:27:40.055Z,2.90
2018-10-02T17:30:09.699Z,4.00
2018-10-02T17:32:39.206Z,3.93
2018-10-02T17:35:09.039Z,4.13
2018-10-02T17:37:38.586Z,4.20
2018-10-02T17:40:08.419Z,4.50
2018-10-02T17:42:37.925Z,4.70
2018-10-02T17:45:07.350Z,4.40
2018-10-02T17:47:37.072Z,5.43
2018-10-02T17:50:06.560Z,5.13
2018-10-02T17:52:36.327Z,5.10
2018-10-02T17:55:06.065Z,4.40
2018-10-02T17:57:35.872Z,3.80
2018-10-02T18:00:05.923Z,4.70
2018-10-02T18:02:35.296Z,4.93
2018-10-02T18:05:04.881Z,5.47
2018-10-02T18:07:34.295Z,4.53
2018-10-02T18:10:03.709Z,5.63
2018-10-02T18:12:33.729Z,5.40
2018-10-02T18:15:03.473Z,5.47
2018-10-02T18:17:32.864Z,7.30
2018-10-02T18:20:02.292Z,6.80
2018-10-02T18:22:31.969Z,5.70
2018-10-02T18:25:01.380Z,5.43
2018-10-02T18:27:30.822Z,4.60
2018-10-02T18:30:00.372Z,4.47
2018-10-02T18:32:29.740Z,4.90
2018-10-02T18:34:59.432Z,6.60
2018-10-02T18:37:28.967Z,7.37
2018-10-02T18:39:59.008Z,6.50
2018-10-02T18:42:29.278Z,6.20
2018-10-02T18:44:58.965Z,5.50
2018-10-02T18:47:28.951Z,4.90
2018-10-02T18:49:58.760Z,4.57
2018-10-02T18:52:28.806Z,4.30
2018-10-02T18:54:58.432Z,4.83
2018-10-02T18:57:28.310Z,4.37
2018-10-02T18:59:58.895Z,4.60
2018-10-02T19:02:28.555Z,4.50
2018-10-02T19:04:58.234Z,5.13
2018-10-02T19:07:27.733Z,6.30
2018-10-02T19:09:57.371Z,5.93
2018-10-02T19:12:27.136Z,6.63
2018-10-02T19:14:56.608Z,7.23
2018-10-02T19:17:26.900Z,5.97
2018-10-02T19:20:01.773Z,5.13
2018-10-02T19:22:31.380Z,5.27
2018-10-02T19:25:06.129Z,4.13
2018-10-02T19:27:36.040Z,4.50
2018-10-02T19:30:11.029Z,5.30
2018-10-02T19:32:50.709Z,5.13
2018-10-02T19:35:20.212Z,5.30
2018-10-02T19:37:54.953Z,4.83
2018-10-02T19:40:25.273Z,4.90
2018-10-02T19:42:54.965Z,5.00
2018-10-02T19:45:29.626Z,4.03
2018-10-02T19:47:59.278Z,4.60
2018-10-02T19:50:28.970Z,4.17
2018-10-02T19:52:58.843Z,4.70
2018-10-02T19:55:28.407Z,4.07
2018-10-02T19:57:57.776Z,4.17
2018-10-02T20:00:27.145Z,4.50
2018-10-02T20:02:56.509Z,4.30
2018-10-02T20:05:25.883Z,4.10
2018-10-02T20:07:55.265Z,3.80
2018-10-02T20:10:24.915Z,5.50
2018-10-02T20:12:54.272Z,4.70
2018-10-02T20:15:23.885Z,5.27
2018-10-02T20:17:53.545Z,3.30
2018-10-02T20:20:22.912Z,4.60
2018-10-02T20:22:52.268Z,4.70
2018-10-02T20:25:21.632Z,14.17
2018-10-02T20:27:50.998Z,8.33
2018-10-02T20:30:20.371Z,7.97
2018-10-02T20:32:49.868Z,7.70
2018-10-02T20:35:19.228Z,5.33
2018-10-02T20:37:48.609Z,4.50
2018-10-02T20:40:18.068Z,4.87
2018-10-02T20:42:47.647Z,4.47
2018-10-02T20:45:17.017Z,3.43
2018-10-02T20:47:46.816Z,3.60
2018-10-02T20:50:17.685Z,2.27
2018-10-02T20:52:47.416Z,3.20
2018-10-02T20:55:17.210Z,2.40
2018-10-02T20:57:46.844Z,3.10
2018-10-02T21:00:16.529Z,2.33
2018-10-02T21:02:46.196Z,2.70
2018-10-02T21:05:16.977Z,2.70
2018-10-02T21:07:46.789Z,2.80
2018-10-02T21:10:16.719Z,2.60
2018-10-02T21:12:46.414Z,2.23
2018-10-02T21:15:16.271Z,2.53
2018-10-02T21:17:46.048Z,2.90
2018-10-02T21:20:15.836Z,2.60
2018-10-02T21:22:45.526Z,3.00
2018-10-02T21:25:15.202Z,2.50
2018-10-02T21:27:44.848Z,2.60
2018-10-02T21:30:14.568Z,2.10
2018-10-02T21:32:44.091Z,2.00
2018-10-02T21:35:13.637Z,2.10
2018-10-02T21:37:43.312Z,2.10
2018-10-02T21:40:13.007Z,2.17
2018-10-02T21:42:42.676Z,2.20
2018-10-02T21:45:12.347Z,1.77
2018-10-02T21:47:42.209Z,1.80
2018-10-02T21:50:11.864Z,2.00
2018-10-02T21:52:41.643Z,2.20
2018-10-02T21:55:11.273Z,1.73
2018-10-02T21:57:41.064Z,2.17
2018-10-02T22:00:11.288Z,2.13
2018-10-02T22:02:55.705Z,1.87
2018-10-02T22:05:25.537Z,1.60
2018-10-02T22:07:55.180Z,1.77
2018-10-02T22:10:24.851Z,1.50
2018-10-02T22:12:54.512Z,1.43
2018-10-02T22:15:24.361Z,1.70
2018-10-02T22:17:54.105Z,1.70
2018-10-02T22:20:23.954Z,2.00
2018-10-02T22:22:53.707Z,2.20
2018-10-02T22:25:23.361Z,1.70
2018-10-02T22:27:53.273Z,1.83
2018-10-02T22:30:22.994Z,1.87
2018-10-02T22:32:52.767Z,2.17
2018-10-02T22:35:22.609Z,1.83
2018-10-02T22:37:52.288Z,2.23
2018-10-02T22:40:22.038Z,2.07
2018-10-02T22:42:51.732Z,1.97
2018-10-02T22:45:21.712Z,2.50
2018-10-02T22:47:51.362Z,1.97
2018-10-02T22:50:21.237Z,1.40
2018-10-02T22:52:50.909Z,1.80
2018-10-02T22:55:20.773Z,1.43
2018-10-02T22:57:50.423Z,2.03
2018-10-02T23:00:20.229Z,1.67
2018-10-02T23:02:49.933Z,1.83
2018-10-02T23:05:19.636Z,2.47
2018-10-02T23:07:49.508Z,2.13
2018-10-02T23:10:19.163Z,2.73
2018-10-02T23:12:48.955Z,2.23
2018-10-02T23:15:18.679Z,1.70
2018-10-02T23:17:48.475Z,2.13
2018-10-02T23:20:18.180Z,2.00
2018-10-02T23:22:47.812Z,2.00
2018-10-02T23:25:17.681Z,2.10
2018-10-02T23:27:47.441Z,2.30
2018-10-02T23:30:17.219Z,1.83
2018-10-02T23:32:46.989Z,2.20
2018-10-02T23:35:16.760Z,2.30
2018-10-02T23:37:46.451Z,2.17
2018-10-02T23:40:16.169Z,2.03
2018-10-02T23:42:45.951Z,2.07
2018-10-02T23:45:15.722Z,1.80
2018-10-02T23:47:45.373Z,2.60
2018-10-02T23:50:15.003Z,2.17
2018-10-02T23:52:44.733Z,1.73
2018-10-02T23:55:14.552Z,2.10
2018-10-02T23:57:44.492Z,2.73
